Time;durP1;ratioP1;P1;durP2;ratioP2;P2;SDS_P1;SDS_P2;PMS_P1;PMS_P2;Temp;Humidity;BMP_temperature;BMP_pressure;BME280_temperature;BME280_humidity;BME280_pressure;Samples;Min_cycle;Max_cycle;Signal;HPM_P1;HPM_P2
2022/08/06 00:01:42;;;;;;;;;;;17.00;61.10;;;;;;5107863;28;20558;-69
2022/08/06 00:04:08;;;;;;;;;;;17.00;61.30;;;;;;5094752;28;19939;-69
2022/08/06 00:06:33;;;;;;;;;;;16.90;61.50;;;;;;5086836;28;19916;-76
2022/08/06 00:08:59;;;;;;;;;;;16.90;61.40;;;;;;5088384;28;19927;-68
2022/08/06 00:11:25;;;;;;;;;;;16.90;61.50;;;;;;5070592;28;19916;-76
2022/08/06 00:13:50;;;;;;;;;;;16.90;61.70;;;;;;5089068;28;20279;-68
2022/08/06 00:16:16;;;;;;;;;;;16.90;61.80;;;;;;5071829;28;19913;-69
2022/08/06 00:18:42;;;;;;;;;;;16.80;62.00;;;;;;5097914;28;20350;-69
2022/08/06 00:21:07;;;;;;;;;;;16.80;62.10;;;;;;5091766;28;19946;-68
2022/08/06 00:23:33;;;;;;;;;;;16.80;62.20;;;;;;5070456;28;20049;-70
2022/08/06 00:25:58;;;;;;;;;;;16.80;62.30;;;;;;5089200;28;19940;-70
2022/08/06 00:28:24;;;;;;;;;;;16.80;62.40;;;;;;5091951;28;19985;-69
2022/08/06 00:30:50;;;;;;;;;;;16.80;62.30;;;;;;5082092;28;20363;-69
2022/08/06 00:33:15;;;;;;;;;;;16.80;62.20;;;;;;5086105;28;19916;-70
2022/08/06 00:35:42;;;;;;;;;;;16.80;62.20;;;;;;5087982;28;19920;-69
2022/08/06 00:38:07;;;;;;;;;;;16.80;62.20;;;;;;5075112;28;19920;-69
2022/08/06 00:40:33;;;;;;;;;;;16.70;62.20;;;;;;5086067;28;19923;-69
2022/08/06 00:42:59;;;;;;;;;;;16.80;62.40;;;;;;5089941;28;19927;-69
2022/08/06 00:45:24;;;;;;;;;;;16.70;62.40;;;;;;5089820;28;19920;-69
2022/08/06 00:47:50;;;;;;;;;;;16.70;62.70;;;;;;5082531;28;19920;-69
2022/08/06 00:50:15;;;;;;;;;;;16.70;62.80;;;;;;5079497;28;20007;-69
2022/08/06 00:52:41;;;;;;;;;;;16.60;63.10;;;;;;5068565;28;19913;-70
2022/08/06 00:55:07;;;;;;;;;;;16.60;63.30;;;;;;5089920;28;20374;-69
2022/08/06 00:57:32;;;;;;;;;;;16.50;63.30;;;;;;5088435;28;20397;-77
2022/08/06 00:59:58;;;;;;;;;;;16.50;63.50;;;;;;5080147;28;20294;-77
2022/08/06 01:02:23;;;;;;;;;;;16.50;63.60;;;;;;5089599;28;20355;-69
2022/08/06 01:04:49;;;;;;;;;;;16.50;63.50;;;;;;5089166;28;19916;-77
2022/08/06 01:07:14;;;;;;;;;;;16.60;63.60;;;;;;5087221;28;19916;-69
2022/08/06 01:09:40;;;;;;;;;;;16.60;63.50;;;;;;5087270;28;19917;-77
2022/08/06 01:12:05;;;;;;;;;;;16.60;63.60;;;;;;5098663;28;19916;-77
2022/08/06 01:14:31;;;;;;;;;;;16.60;63.70;;;;;;5085259;28;19923;-70
2022/08/06 01:16:58;;;;;;;;;;;16.50;63.80;;;;;;5088545;28;19947;-70
2022/08/06 01:19:24;;;;;;;;;;;16.60;63.90;;;;;;5089799;28;19915;-69
2022/08/06 01:22:01;;;;;;;;;;;16.60;64.00;;;;;;5078090;28;19913;-69
2022/08/06 01:24:39;;;;;;;;;;;16.60;64.10;;;;;;5082339;28;20383;-69
2022/08/06 01:27:24;;;;;;;;;;;16.60;64.10;;;;;;5090574;28;19923;-70
2022/08/06 01:29:51;;;;;;;;;;;16.60;64.20;;;;;;5086962;28;20011;-78
2022/08/06 01:32:20;;;;;;;;;;;16.60;64.30;;;;;;5098690;28;20342;-78
2022/08/06 01:34:54;;;;;;;;;;;16.60;64.90;;;;;;5105073;28;20045;-77
2022/08/06 01:37:20;;;;;;;;;;;16.60;64.30;;;;;;5098027;28;19916;-78
2022/08/06 01:39:48;;;;;;;;;;;16.60;64.30;;;;;;5100306;28;20286;-70
2022/08/06 01:42:15;;;;;;;;;;;16.60;64.30;;;;;;5093601;28;19919;-69
2022/08/06 01:44:43;;;;;;;;;;;16.50;64.50;;;;;;5092277;28;19953;-70
2022/08/06 01:47:10;;;;;;;;;;;16.50;64.50;;;;;;5091746;28;19957;-70
2022/08/06 01:49:37;;;;;;;;;;;16.50;65.10;;;;;;5099105;28;19919;-70
2022/08/06 01:52:04;;;;;;;;;;;16.50;64.50;;;;;;5100650;28;19916;-70
2022/08/06 01:54:30;;;;;;;;;;;16.50;64.70;;;;;;5091616;28;19920;-69
2022/08/06 01:56:57;;;;;;;;;;;16.50;64.70;;;;;;5088280;28;19912;-69
2022/08/06 01:59:26;;;;;;;;;;;16.50;64.70;;;;;;5080979;28;19919;-70
2022/08/06 02:01:53;;;;;;;;;;;16.50;64.60;;;;;;5091500;28;19919;-70
2022/08/06 02:04:20;;;;;;;;;;;16.50;64.50;;;;;;5086614;28;19924;-70
2022/08/06 02:06:46;;;;;;;;;;;16.50;64.50;;;;;;5084285;28;19916;-70
2022/08/06 02:09:15;;;;;;;;;;;16.50;64.50;;;;;;5089888;28;20634;-70
2022/08/06 02:11:42;;;;;;;;;;;16.40;64.60;;;;;;5088541;28;19923;-70
2022/08/06 02:14:09;;;;;;;;;;;16.40;64.70;;;;;;5094913;28;19920;-78
2022/08/06 02:16:36;;;;;;;;;;;16.40;64.80;;;;;;5095069;28;19915;-78
2022/08/06 02:19:03;;;;;;;;;;;16.40;64.90;;;;;;5094992;28;19915;-78
2022/08/06 02:21:29;;;;;;;;;;;16.40;64.90;;;;;;5092701;28;19947;-78
2022/08/06 02:23:56;;;;;;;;;;;16.30;65.10;;;;;;5095261;28;19973;-78
2022/08/06 02:26:23;;;;;;;;;;;16.30;65.30;;;;;;5092049;28;19962;-78
2022/08/06 02:28:51;;;;;;;;;;;16.30;65.30;;;;;;5095429;28;19916;-78
2022/08/06 02:31:17;;;;;;;;;;;16.30;65.40;;;;;;5098154;28;19912;-78
2022/08/06 02:33:43;;;;;;;;;;;16.30;65.30;;;;;;5098262;28;20271;-78
2022/08/06 02:36:11;;;;;;;;;;;16.30;65.30;;;;;;5098819;28;19916;-78
2022/08/06 02:38:46;;;;;;;;;;;16.30;65.30;;;;;;5094442;28;19912;-78
2022/08/06 02:41:23;;;;;;;;;;;16.30;65.40;;;;;;5090775;28;19909;-78
2022/08/06 02:43:54;;;;;;;;;;;16.30;65.40;;;;;;5101713;28;20007;-78
2022/08/06 02:46:33;;;;;;;;;;;16.20;65.50;;;;;;5094892;28;20003;-78
2022/08/06 02:49:04;;;;;;;;;;;16.20;65.60;;;;;;5094925;28;19913;-78
2022/08/06 02:51:34;;;;;;;;;;;16.20;65.60;;;;;;5100862;28;19912;-78
2022/08/06 02:54:03;;;;;;;;;;;16.20;65.60;;;;;;5106398;28;19923;-78
2022/08/06 02:56:30;;;;;;;;;;;16.20;65.60;;;;;;5098303;28;19922;-79
2022/08/06 02:58:57;;;;;;;;;;;16.20;65.60;;;;;;5100181;28;19975;-78
2022/08/06 03:01:25;;;;;;;;;;;16.20;65.70;;;;;;5115260;28;20350;-78
2022/08/06 03:03:52;;;;;;;;;;;16.10;65.60;;;;;;5098347;28;19916;-78
2022/08/06 03:06:19;;;;;;;;;;;16.10;65.60;;;;;;5114204;28;19912;-78
2022/08/06 03:08:46;;;;;;;;;;;16.10;65.70;;;;;;5080131;28;20280;-78
2022/08/06 03:11:12;;;;;;;;;;;16.00;65.80;;;;;;5096727;28;19920;-78
2022/08/06 03:13:38;;;;;;;;;;;16.00;65.90;;;;;;5100511;28;19916;-78
2022/08/06 03:16:05;;;;;;;;;;;16.00;66.00;;;;;;5107660;28;19907;-79
2022/08/06 03:18:32;;;;;;;;;;;15.90;66.20;;;;;;5103220;28;19960;-79
2022/08/06 03:20:57;;;;;;;;;;;15.90;66.20;;;;;;5110492;28;20436;-78
2022/08/06 03:23:23;;;;;;;;;;;15.90;66.20;;;;;;5080943;28;19912;-78
2022/08/06 03:25:50;;;;;;;;;;;15.90;66.20;;;;;;5087710;28;20002;-79
2022/08/06 03:28:16;;;;;;;;;;;15.90;66.10;;;;;;5096215;28;19916;-79
2022/08/06 03:30:41;;;;;;;;;;;15.90;66.20;;;;;;5104770;28;20343;-78
2022/08/06 03:33:08;;;;;;;;;;;15.90;66.20;;;;;;5105764;28;19919;-79
2022/08/06 03:35:35;;;;;;;;;;;15.90;66.20;;;;;;5095557;28;19912;-78
2022/08/06 03:38:01;;;;;;;;;;;15.80;66.20;;;;;;5083347;28;20382;-79
2022/08/06 03:40:28;;;;;;;;;;;15.80;66.30;;;;;;5091647;28;19912;-78
2022/08/06 03:42:53;;;;;;;;;;;15.70;66.20;;;;;;5095388;28;19970;-78
2022/08/06 03:45:19;;;;;;;;;;;15.70;66.30;;;;;;5093697;28;19920;-78
2022/08/06 03:47:47;;;;;;;;;;;15.70;66.40;;;;;;5087793;28;19917;-79
2022/08/06 03:50:15;;;;;;;;;;;15.60;66.50;;;;;;5088089;28;19958;-78
2022/08/06 03:52:43;;;;;;;;;;;15.60;66.60;;;;;;5089423;28;19912;-78
2022/08/06 03:55:12;;;;;;;;;;;15.60;66.60;;;;;;5093265;28;19950;-79
2022/08/06 03:57:40;;;;;;;;;;;15.60;66.70;;;;;;5091994;28;20528;-79
2022/08/06 04:00:07;;;;;;;;;;;15.60;66.70;;;;;;5091336;28;20255;-78
2022/08/06 04:02:40;;;;;;;;;;;15.60;66.70;;;;;;5095142;28;19915;-78
2022/08/06 04:05:06;;;;;;;;;;;15.60;66.70;;;;;;5087978;28;19916;-78
2022/08/06 04:07:32;;;;;;;;;;;15.50;66.60;;;;;;5092893;28;19908;-78
2022/08/06 04:09:58;;;;;;;;;;;15.50;66.70;;;;;;5100731;28;19912;-77
2022/08/06 04:12:24;;;;;;;;;;;15.50;66.80;;;;;;5109443;28;21283;-78
2022/08/06 04:14:50;;;;;;;;;;;15.40;66.90;;;;;;5119834;28;19923;-78
2022/08/06 04:17:17;;;;;;;;;;;15.40;67.20;;;;;;5110327;28;19916;-79
2022/08/06 04:19:43;;;;;;;;;;;15.30;67.40;;;;;;5111474;28;20002;-79
2022/08/06 04:22:09;;;;;;;;;;;15.30;67.60;;;;;;5112860;28;19920;-78
2022/08/06 04:24:34;;;;;;;;;;;15.30;67.80;;;;;;5112783;28;20290;-78
2022/08/06 04:27:02;;;;;;;;;;;15.20;67.90;;;;;;5112650;28;19918;-78
2022/08/06 04:29:28;;;;;;;;;;;15.20;68.00;;;;;;5118392;28;19912;-78
2022/08/06 04:31:54;;;;;;;;;;;15.30;68.00;;;;;;5118376;27;19916;-78
2022/08/06 04:34:22;;;;;;;;;;;15.30;67.80;;;;;;5116783;27;20010;-77
2022/08/06 04:36:48;;;;;;;;;;;15.30;67.70;;;;;;5113082;28;19915;-78
2022/08/06 04:39:14;;;;;;;;;;;15.30;68.10;;;;;;5115093;28;19924;-78
2022/08/06 04:41:40;;;;;;;;;;;15.30;67.60;;;;;;5110940;28;19923;-77
2022/08/06 04:44:05;;;;;;;;;;;15.40;67.80;;;;;;5110310;28;19928;-78
2022/08/06 04:46:32;;;;;;;;;;;15.30;68.00;;;;;;5113258;28;20295;-78
2022/08/06 04:48:58;;;;;;;;;;;15.30;68.00;;;;;;5115974;28;20292;-78
2022/08/06 04:51:23;;;;;;;;;;;15.30;68.10;;;;;;5111648;28;19922;-79
2022/08/06 04:53:49;;;;;;;;;;;15.40;68.20;;;;;;5109538;28;20287;-78
2022/08/06 04:56:15;;;;;;;;;;;15.40;68.80;;;;;;5095160;28;19924;-78
2022/08/06 04:58:40;;;;;;;;;;;15.40;68.30;;;;;;5112400;28;20014;-77
2022/08/06 05:01:06;;;;;;;;;;;15.50;68.30;;;;;;5115562;28;19915;-78
2022/08/06 05:03:31;;;;;;;;;;;15.50;68.40;;;;;;5113198;28;19912;-77
2022/08/06 05:06:03;;;;;;;;;;;15.70;68.50;;;;;;5104190;28;19951;-77
2022/08/06 05:08:29;;;;;;;;;;;15.70;68.50;;;;;;5112513;28;20048;-78
2022/08/06 05:11:05;;;;;;;;;;;15.80;68.60;;;;;;5112057;28;19916;-78
2022/08/06 05:13:33;;;;;;;;;;;15.90;68.60;;;;;;5114468;28;19991;-79
2022/08/06 05:16:02;;;;;;;;;;;16.00;68.50;;;;;;5121244;28;19944;-77
2022/08/06 05:18:36;;;;;;;;;;;16.10;68.50;;;;;;5117689;28;20427;-77
2022/08/06 05:21:02;;;;;;;;;;;16.20;68.50;;;;;;5119774;28;19927;-78
2022/08/06 05:23:34;;;;;;;;;;;16.40;68.40;;;;;;5117359;28;20374;-78
2022/08/06 05:26:01;;;;;;;;;;;16.50;68.10;;;;;;5118663;27;20286;-78
2022/08/06 05:28:26;;;;;;;;;;;16.70;67.80;;;;;;5120243;28;19946;-77
2022/08/06 05:30:52;;;;;;;;;;;16.80;67.50;;;;;;5108019;28;19916;-77
2022/08/06 05:33:28;;;;;;;;;;;16.90;67.50;;;;;;5105692;28;19912;-77
2022/08/06 05:35:54;;;;;;;;;;;17.00;67.20;;;;;;5103962;28;19912;-69
2022/08/06 05:38:20;;;;;;;;;;;17.10;67.10;;;;;;5100646;28;19919;-69
2022/08/06 05:40:45;;;;;;;;;;;17.30;67.00;;;;;;5101673;28;19994;-70
2022/08/06 05:43:11;;;;;;;;;;;17.40;66.70;;;;;;5102013;28;20282;-70
2022/08/06 05:45:39;;;;;;;;;;;17.50;66.50;;;;;;5091104;28;19919;-70
2022/08/06 05:48:04;;;;;;;;;;;17.50;66.20;;;;;;5086283;28;19923;-70
2022/08/06 05:50:34;;;;;;;;;;;17.60;66.20;;;;;;5092320;28;20359;-69
2022/08/06 05:53:04;;;;;;;;;;;17.60;66.10;;;;;;5087197;28;19912;-69
2022/08/06 05:55:51;;;;;;;;;;;17.70;65.90;;;;;;5082613;28;19924;-69
2022/08/06 05:58:23;;;;;;;;;;;17.70;65.80;;;;;;5086611;28;20436;-69
2022/08/06 06:00:51;;;;;;;;;;;17.80;65.70;;;;;;5084836;28;19972;-69
2022/08/06 06:03:17;;;;;;;;;;;17.80;65.70;;;;;;5080695;28;20013;-69
2022/08/06 06:05:43;;;;;;;;;;;17.90;65.50;;;;;;5081985;28;19916;-68
2022/08/06 06:08:08;;;;;;;;;;;17.90;65.40;;;;;;5078612;28;19931;-70
2022/08/06 06:10:35;;;;;;;;;;;17.90;65.30;;;;;;5075160;28;20548;-69
2022/08/06 06:13:01;;;;;;;;;;;17.90;65.10;;;;;;5084007;28;19923;-69
2022/08/06 06:15:27;;;;;;;;;;;17.90;65.10;;;;;;5091363;28;19919;-68
2022/08/06 06:17:53;;;;;;;;;;;17.90;65.00;;;;;;5090198;28;19912;-69
2022/08/06 06:20:22;;;;;;;;;;;17.90;65.20;;;;;;5089853;28;19970;-69
2022/08/06 06:22:57;;;;;;;;;;;17.90;65.10;;;;;;5090116;28;19908;-69
2022/08/06 06:25:34;;;;;;;;;;;18.00;64.90;;;;;;5089036;28;20024;-69
2022/08/06 06:28:06;;;;;;;;;;;18.10;64.80;;;;;;5100913;28;20289;-69
2022/08/06 06:30:53;;;;;;;;;;;18.20;64.70;;;;;;5105146;28;19916;-68
2022/08/06 06:33:32;;;;;;;;;;;18.20;64.50;;;;;;5102727;28;19920;-68
2022/08/06 06:36:00;;;;;;;;;;;18.30;64.10;;;;;;5108033;28;20374;-68
2022/08/06 06:38:25;;;;;;;;;;;18.40;64.00;;;;;;5103615;28;20290;-68
2022/08/06 06:40:59;;;;;;;;;;;18.50;64.10;;;;;;5110254;28;19919;-68
2022/08/06 06:43:43;;;;;;;;;;;18.60;64.20;;;;;;5094477;28;19912;-69
2022/08/06 06:46:19;;;;;;;;;;;18.60;64.10;;;;;;5096724;28;20372;-69
2022/08/06 06:48:55;;;;;;;;;;;18.70;64.10;;;;;;5101121;28;20002;-69
2022/08/06 06:51:32;;;;;;;;;;;18.70;64.00;;;;;;5107599;28;20002;-69
2022/08/06 06:53:58;;;;;;;;;;;18.80;63.80;;;;;;5110304;28;19912;-70
2022/08/06 06:56:25;;;;;;;;;;;18.80;63.60;;;;;;5087638;28;19946;-69
2022/08/06 06:58:54;;;;;;;;;;;18.90;63.20;;;;;;5101952;28;19916;-68
2022/08/06 07:01:20;;;;;;;;;;;19.00;63.10;;;;;;5101361;28;19919;-69
2022/08/06 07:03:46;;;;;;;;;;;19.00;62.80;;;;;;5098604;28;19976;-69
2022/08/06 07:06:12;;;;;;;;;;;19.10;62.70;;;;;;5104342;28;19919;-69
2022/08/06 07:08:43;;;;;;;;;;;19.10;62.40;;;;;;5096577;28;20687;-69
2022/08/06 07:11:09;;;;;;;;;;;19.20;62.30;;;;;;5098848;28;19943;-68
2022/08/06 07:13:36;;;;;;;;;;;19.20;62.00;;;;;;5105411;28;20198;-69
2022/08/06 07:16:02;;;;;;;;;;;19.20;62.00;;;;;;5101742;28;19912;-69
2022/08/06 07:18:28;;;;;;;;;;;19.30;62.00;;;;;;5106116;28;19962;-69
2022/08/06 07:20:54;;;;;;;;;;;19.30;62.00;;;;;;5105212;28;19955;-69
2022/08/06 07:23:22;;;;;;;;;;;19.40;61.80;;;;;;5104342;28;19972;-69
2022/08/06 07:25:48;;;;;;;;;;;19.40;61.70;;;;;;5108227;28;19912;-68
2022/08/06 07:28:14;;;;;;;;;;;19.50;61.60;;;;;;5101437;28;19912;-75
2022/08/06 07:30:41;;;;;;;;;;;19.70;61.50;;;;;;5102583;28;20010;-77
2022/08/06 07:33:09;;;;;;;;;;;19.90;61.20;;;;;;5091817;28;19919;-75
2022/08/06 07:35:35;;;;;;;;;;;20.00;60.30;;;;;;5082471;28;19962;-69
2022/08/06 07:38:03;;;;;;;;;;;20.00;60.30;;;;;;5094493;28;20334;-77
2022/08/06 07:40:49;;;;;;;;;;;20.00;59.70;;;;;;5111507;28;19912;-77
2022/08/06 07:43:22;;;;;;;;;;;20.10;59.70;;;;;;5088162;28;20015;-76
2022/08/06 07:45:49;;;;;;;;;;;20.20;59.50;;;;;;5099534;28;19912;-76
2022/08/06 07:48:15;;;;;;;;;;;20.30;59.50;;;;;;5101434;28;19916;-77
2022/08/06 07:50:47;;;;;;;;;;;20.30;59.10;;;;;;5093909;28;19916;-76
2022/08/06 07:53:14;;;;;;;;;;;20.40;58.90;;;;;;5096809;28;19914;-76
2022/08/06 07:55:39;;;;;;;;;;;20.50;58.50;;;;;;5093154;28;19920;-76
2022/08/06 07:58:06;;;;;;;;;;;20.60;58.20;;;;;;5093445;28;19923;-76
2022/08/06 08:00:32;;;;;;;;;;;20.70;57.90;;;;;;5084385;28;20256;-69
2022/08/06 08:08:29;;;;;;;;;;;20.80;57.00;;;;;;5087472;28;20005;-77
2022/08/06 08:10:55;;;;;;;;;;;20.90;56.50;;;;;;5071434;28;19909;-77
2022/08/06 08:13:22;;;;;;;;;;;20.90;55.40;;;;;;5080970;28;20033;-77
2022/08/06 08:15:47;;;;;;;;;;;21.00;54.20;;;;;;5098112;28;19918;-77
2022/08/06 08:18:13;;;;;;;;;;;21.00;54.00;;;;;;5106774;28;19912;-76
2022/08/06 08:20:40;;;;;;;;;;;21.10;54.10;;;;;;5092783;28;19965;-70
2022/08/06 08:23:08;;;;;;;;;;;21.20;52.80;;;;;;5098309;27;19930;-70
2022/08/06 08:25:34;;;;;;;;;;;21.30;53.00;;;;;;5105950;28;20016;-75
2022/08/06 08:28:00;;;;;;;;;;;21.40;53.20;;;;;;5086495;28;19916;-71
2022/08/06 08:30:26;;;;;;;;;;;21.50;53.20;;;;;;5097198;28;20667;-70
2022/08/06 08:32:51;;;;;;;;;;;21.70;52.40;;;;;;5104742;28;20247;-70
2022/08/06 08:35:17;;;;;;;;;;;21.70;51.20;;;;;;5104254;28;19919;-71
2022/08/06 08:37:42;;;;;;;;;;;21.80;51.60;;;;;;5105780;28;19916;-70
2022/08/06 08:40:08;;;;;;;;;;;21.90;51.50;;;;;;5109221;28;19924;-71
2022/08/06 08:42:43;;;;;;;;;;;22.00;51.30;;;;;;5104139;28;19912;-71
2022/08/06 08:45:09;;;;;;;;;;;22.10;51.10;;;;;;5088242;28;19930;-70
2022/08/06 08:47:37;;;;;;;;;;;22.10;50.70;;;;;;5093964;28;20374;-71
2022/08/06 08:50:03;;;;;;;;;;;22.20;50.20;;;;;;5088254;28;19927;-71
2022/08/06 08:52:31;;;;;;;;;;;22.20;49.50;;;;;;5093450;28;19920;-71
2022/08/06 08:55:00;;;;;;;;;;;22.30;49.60;;;;;;5092766;28;19920;-71
2022/08/06 08:57:27;;;;;;;;;;;22.40;48.00;;;;;;5093022;28;19916;-71
2022/08/06 08:59:54;;;;;;;;;;;22.40;48.20;;;;;;5103257;28;19915;-71
2022/08/06 09:02:19;;;;;;;;;;;22.30;48.80;;;;;;5104649;28;19916;-71
2022/08/06 09:04:45;;;;;;;;;;;22.40;49.10;;;;;;5093633;28;19986;-71
2022/08/06 09:07:11;;;;;;;;;;;22.60;48.90;;;;;;5101127;28;19947;-71
2022/08/06 09:09:37;;;;;;;;;;;22.70;48.60;;;;;;5101643;28;19916;-71
2022/08/06 09:12:03;;;;;;;;;;;22.70;48.70;;;;;;5097228;28;19912;-71
2022/08/06 09:14:29;;;;;;;;;;;22.60;47.90;;;;;;5099697;28;19973;-74
2022/08/06 09:16:57;;;;;;;;;;;22.60;47.50;;;;;;5099246;28;20402;-74
2022/08/06 09:19:22;;;;;;;;;;;22.60;47.70;;;;;;5101673;28;19976;-71
2022/08/06 09:21:48;;;;;;;;;;;22.70;47.00;;;;;;5095923;28;19924;-71
2022/08/06 09:24:14;;;;;;;;;;;22.90;46.90;;;;;;5106774;28;19980;-70
2022/08/06 09:26:59;;;;;;;;;;;23.00;45.90;;;;;;5096455;28;20363;-73
2022/08/06 09:29:25;;;;;;;;;;;23.10;45.80;;;;;;5090631;28;20369;-73
2022/08/06 09:31:50;;;;;;;;;;;23.20;46.10;;;;;;5099813;28;19926;-73
2022/08/06 09:34:16;;;;;;;;;;;23.30;46.10;;;;;;5097359;28;19912;-73
2022/08/06 09:36:42;;;;;;;;;;;23.30;46.00;;;;;;5092522;28;20526;-73
2022/08/06 09:39:08;;;;;;;;;;;23.30;45.60;;;;;;5098745;28;19916;-73
2022/08/06 09:41:44;;;;;;;;;;;23.10;46.00;;;;;;5095388;28;19921;-73
2022/08/06 09:44:11;;;;;;;;;;;23.00;46.20;;;;;;5107877;28;19920;-71
2022/08/06 09:46:47;;;;;;;;;;;22.80;45.80;;;;;;5095662;27;20054;-70
2022/08/06 09:49:13;;;;;;;;;;;22.60;46.40;;;;;;5112352;27;19923;-71
2022/08/06 09:51:40;;;;;;;;;;;22.60;46.90;;;;;;5111517;28;19915;-70
2022/08/06 09:54:09;;;;;;;;;;;22.70;47.20;;;;;;5103505;28;19920;-70
2022/08/06 09:56:35;;;;;;;;;;;23.00;46.90;;;;;;5102128;27;20295;-73
2022/08/06 09:59:05;;;;;;;;;;;23.40;45.90;;;;;;5104989;28;19915;-70
2022/08/06 10:01:40;;;;;;;;;;;23.70;44.70;;;;;;5103298;28;19916;-69
2022/08/06 10:04:07;;;;;;;;;;;24.00;43.10;;;;;;5087887;28;20343;-70
2022/08/06 10:06:32;;;;;;;;;;;24.00;42.80;;;;;;5081051;28;19913;-70
2022/08/06 10:09:05;;;;;;;;;;;24.00;42.80;;;;;;5082653;28;20434;-73
2022/08/06 10:11:32;;;;;;;;;;;24.00;42.20;;;;;;5089901;28;19995;-74
2022/08/06 10:13:58;;;;;;;;;;;24.00;42.10;;;;;;5085161;28;19965;-74
2022/08/06 10:16:26;;;;;;;;;;;24.30;42.50;;;;;;5090377;28;19916;-72
2022/08/06 10:18:52;;;;;;;;;;;24.70;42.50;;;;;;5090481;28;20357;-73
2022/08/06 10:21:18;;;;;;;;;;;25.10;42.30;;;;;;5090337;28;20025;-73
2022/08/06 10:23:45;;;;;;;;;;;25.50;41.90;;;;;;5086262;28;19919;-70
2022/08/06 10:26:12;;;;;;;;;;;25.70;41.60;;;;;;5091211;28;19912;-70
2022/08/06 10:28:39;;;;;;;;;;;25.90;41.10;;;;;;5091006;28;19924;-70
2022/08/06 10:31:06;;;;;;;;;;;26.10;40.90;;;;;;5085747;28;19920;-70
2022/08/06 10:33:36;;;;;;;;;;;26.10;39.60;;;;;;5094550;28;19912;-70
2022/08/06 10:36:04;;;;;;;;;;;25.80;39.10;;;;;;5093547;28;19919;-73
2022/08/06 10:38:33;;;;;;;;;;;25.70;39.30;;;;;;5096541;28;20363;-74
2022/08/06 10:40:59;;;;;;;;;;;25.30;39.10;;;;;;5085181;28;20367;-70
2022/08/06 10:43:26;;;;;;;;;;;24.90;39.60;;;;;;5096689;28;19912;-71
2022/08/06 10:45:52;;;;;;;;;;;24.70;40.00;;;;;;5103673;27;20006;-70
2022/08/06 10:48:18;;;;;;;;;;;24.40;40.10;;;;;;5094614;28;20407;-70
2022/08/06 10:50:44;;;;;;;;;;;24.20;40.70;;;;;;5083084;28;19912;-70
2022/08/06 10:53:10;;;;;;;;;;;24.00;41.40;;;;;;5086373;28;19984;-70
2022/08/06 10:55:35;;;;;;;;;;;24.00;41.80;;;;;;5090349;28;19928;-70
2022/08/06 10:58:02;;;;;;;;;;;24.10;42.20;;;;;;5088519;28;19912;-70
2022/08/06 11:00:28;;;;;;;;;;;24.10;42.00;;;;;;5102068;28;20027;-70
2022/08/06 11:03:13;;;;;;;;;;;24.10;42.40;;;;;;5092010;28;20284;-70
2022/08/06 11:05:39;;;;;;;;;;;24.00;42.60;;;;;;5080653;28;20397;-70
2022/08/06 11:08:08;;;;;;;;;;;24.00;43.10;;;;;;5081905;28;19921;-70
2022/08/06 11:10:37;;;;;;;;;;;24.00;43.40;;;;;;5077823;28;19918;-70
2022/08/06 11:13:21;;;;;;;;;;;23.90;43.50;;;;;;5091966;28;20317;-74
2022/08/06 11:15:47;;;;;;;;;;;23.80;43.80;;;;;;5102846;27;19908;-74
2022/08/06 11:18:13;;;;;;;;;;;24.00;44.00;;;;;;5092133;28;19912;-73
2022/08/06 11:20:41;;;;;;;;;;;24.50;43.50;;;;;;5095006;28;19924;-74
2022/08/06 11:23:07;;;;;;;;;;;24.80;42.50;;;;;;5098395;28;20362;-73
2022/08/06 11:25:46;;;;;;;;;;;25.10;42.50;;;;;;5102640;28;19922;-73
2022/08/06 11:28:13;;;;;;;;;;;25.60;42.20;;;;;;5097820;28;20432;-73
2022/08/06 11:30:41;;;;;;;;;;;25.90;41.90;;;;;;5092950;28;19920;-70
2022/08/06 11:33:07;;;;;;;;;;;26.00;41.80;;;;;;5104770;28;20324;-71
2022/08/06 11:35:33;;;;;;;;;;;25.80;41.70;;;;;;5093755;28;19947;-74
2022/08/06 11:37:58;;;;;;;;;;;25.70;42.00;;;;;;5092956;28;19954;-74
2022/08/06 11:40:24;;;;;;;;;;;25.50;42.10;;;;;;5093171;28;19920;-74
2022/08/06 11:42:50;;;;;;;;;;;25.20;42.30;;;;;;5082274;28;19920;-74
2022/08/06 11:45:17;;;;;;;;;;;25.00;42.70;;;;;;5082636;28;20363;-73
2022/08/06 11:48:01;;;;;;;;;;;24.80;42.70;;;;;;5105628;27;19927;-74
2022/08/06 11:50:27;;;;;;;;;;;24.50;42.80;;;;;;5083547;28;19916;-74
2022/08/06 11:52:52;;;;;;;;;;;24.20;43.20;;;;;;5087387;28;20059;-70
2022/08/06 11:55:18;;;;;;;;;;;24.10;43.50;;;;;;5097770;28;19928;-70
2022/08/06 11:57:44;;;;;;;;;;;24.00;43.90;;;;;;5090713;28;19916;-70
2022/08/06 12:00:13;;;;;;;;;;;23.90;44.10;;;;;;5092253;28;19919;-74
2022/08/06 12:02:39;;;;;;;;;;;23.90;44.20;;;;;;5091994;28;19970;-74
2022/08/06 12:05:05;;;;;;;;;;;23.80;45.00;;;;;;5093649;28;19951;-70
2022/08/06 12:07:34;;;;;;;;;;;23.90;44.40;;;;;;5090832;28;20398;-70
2022/08/06 12:09:59;;;;;;;;;;;23.90;44.40;;;;;;5085344;28;19912;-69
2022/08/06 12:12:27;;;;;;;;;;;24.00;44.50;;;;;;5092361;28;20465;-70
2022/08/06 12:14:53;;;;;;;;;;;24.10;44.50;;;;;;5089836;28;19958;-74
2022/08/06 12:17:19;;;;;;;;;;;24.20;44.20;;;;;;5085825;28;19920;-74
2022/08/06 12:19:46;;;;;;;;;;;24.40;43.80;;;;;;5087876;28;19916;-74
2022/08/06 12:22:12;;;;;;;;;;;24.40;43.60;;;;;;5088986;28;19924;-74
2022/08/06 12:24:38;;;;;;;;;;;24.50;43.70;;;;;;5085193;28;20026;-74
2022/08/06 12:27:07;;;;;;;;;;;24.50;43.60;;;;;;5085785;28;20003;-74
2022/08/06 12:29:32;;;;;;;;;;;24.60;43.60;;;;;;5090633;28;20465;-74
2022/08/06 12:31:58;;;;;;;;;;;24.60;43.20;;;;;;5081396;28;19946;-74
2022/08/06 12:34:27;;;;;;;;;;;24.60;43.30;;;;;;5089848;28;19919;-74
2022/08/06 12:36:53;;;;;;;;;;;24.60;43.40;;;;;;5088929;28;20009;-74
2022/08/06 12:39:18;;;;;;;;;;;24.50;43.00;;;;;;5089452;28;19923;-73
2022/08/06 12:41:44;;;;;;;;;;;24.50;41.80;;;;;;5082728;28;19916;-74
2022/08/06 12:44:10;;;;;;;;;;;24.50;41.70;;;;;;5089184;28;19955;-74
2022/08/06 12:46:36;;;;;;;;;;;24.80;41.80;;;;;;5070519;28;19973;-74
2022/08/06 12:49:02;;;;;;;;;;;25.50;41.10;;;;;;5085903;28;19912;-73
2022/08/06 12:51:27;;;;;;;;;;;26.10;40.80;;;;;;5081945;28;20305;-74
2022/08/06 12:53:54;;;;;;;;;;;26.70;40.20;;;;;;5083441;28;19919;-74
2022/08/06 12:56:22;;;;;;;;;;;27.10;39.70;;;;;;5081730;28;19927;-74
2022/08/06 12:58:48;;;;;;;;;;;27.20;39.40;;;;;;5083617;28;19919;-74
2022/08/06 13:01:17;;;;;;;;;;;27.10;39.30;;;;;;5086461;28;19912;-74
2022/08/06 13:03:45;;;;;;;;;;;26.90;39.60;;;;;;5083496;28;19917;-74
2022/08/06 13:06:13;;;;;;;;;;;26.60;39.90;;;;;;5080282;28;19919;-71
2022/08/06 13:08:38;;;;;;;;;;;26.30;39.90;;;;;;5082144;28;20023;-72
2022/08/06 13:11:04;;;;;;;;;;;26.10;40.30;;;;;;5084368;28;19912;-71
2022/08/06 13:13:45;;;;;;;;;;;25.90;40.70;;;;;;5087214;28;20004;-70
2022/08/06 13:16:12;;;;;;;;;;;25.80;41.00;;;;;;5088490;28;20378;-71
2022/08/06 13:18:38;;;;;;;;;;;25.80;41.00;;;;;;5083537;28;19916;-71
2022/08/06 13:21:15;;;;;;;;;;;25.70;41.10;;;;;;5096565;28;19908;-71
2022/08/06 13:23:44;;;;;;;;;;;25.60;41.00;;;;;;5090686;28;20346;-74
2022/08/06 13:26:14;;;;;;;;;;;25.50;41.10;;;;;;5085646;28;20327;-73
2022/08/06 13:28:40;;;;;;;;;;;25.50;40.90;;;;;;5086875;28;19912;-73
2022/08/06 13:31:19;;;;;;;;;;;25.30;41.00;;;;;;5101264;28;19916;-74
2022/08/06 13:33:58;;;;;;;;;;;25.30;41.30;;;;;;5077136;28;19912;-74
2022/08/06 13:36:25;;;;;;;;;;;25.10;41.40;;;;;;5087158;28;19944;-73
2022/08/06 13:38:51;;;;;;;;;;;25.10;41.40;;;;;;5086434;28;19916;-73
2022/08/06 13:41:26;;;;;;;;;;;25.00;41.30;;;;;;5090347;28;19961;-74
2022/08/06 13:43:52;;;;;;;;;;;25.10;41.20;;;;;;5084193;28;19919;-74
2022/08/06 13:46:18;;;;;;;;;;;25.50;40.40;;;;;;5087060;28;20363;-74
2022/08/06 13:48:45;;;;;;;;;;;25.70;40.20;;;;;;5087576;28;19931;-71
2022/08/06 13:51:10;;;;;;;;;;;25.70;40.30;;;;;;5090792;28;19917;-71
2022/08/06 13:53:36;;;;;;;;;;;25.60;40.40;;;;;;5087396;28;19920;-71
2022/08/06 13:56:02;;;;;;;;;;;25.50;41.20;;;;;;5087382;28;19952;-71
2022/08/06 13:58:27;;;;;;;;;;;25.40;40.60;;;;;;5069469;28;19966;-73
2022/08/06 14:00:53;;;;;;;;;;;25.30;40.70;;;;;;5091551;28;19931;-73
2022/08/06 14:03:18;;;;;;;;;;;25.10;40.80;;;;;;5094209;28;19928;-73
2022/08/06 14:05:44;;;;;;;;;;;25.00;41.20;;;;;;5093172;28;19919;-72
2022/08/06 14:08:10;;;;;;;;;;;25.00;41.20;;;;;;5091568;28;20453;-70
2022/08/06 14:10:35;;;;;;;;;;;24.90;41.10;;;;;;5090708;28;20262;-68
2022/08/06 14:13:16;;;;;;;;;;;25.00;41.20;;;;;;5093161;28;19980;-78
2022/08/06 14:15:45;;;;;;;;;;;25.10;41.00;;;;;;5101061;28;19965;-78
2022/08/06 14:18:11;;;;;;;;;;;25.10;39.90;;;;;;5086369;28;19961;-78
2022/08/06 14:20:36;;;;;;;;;;;25.10;40.10;;;;;;5089890;28;20030;-68
2022/08/06 14:23:02;;;;;;;;;;;25.10;40.40;;;;;;5092109;28;20348;-68
2022/08/06 14:25:28;;;;;;;;;;;25.20;40.60;;;;;;5086812;28;20014;-68